Time;durP1;ratioP1;P1;durP2;ratioP2;P2;SDS_P1;SDS_P2;PMS_P1;PMS_P2;Temp;Humidity;BMP_temperature;BMP_pressure;BME280_temperature;BME280_humidity;BME280_pressure;Samples;Min_cycle;Max_cycle;Signal;HPM_P1;HPM_P2
2023/08/29 00:01:26;;;;;;;28.95;27.33;;;19.00;99.90;;;;;;5012213;28;20412;-75
2023/08/29 00:03:55;;;;;;;30.00;28.25;;;19.10;99.90;;;;;;5012737;28;20030;-75
2023/08/29 00:06:21;;;;;;;69.53;65.78;;;19.10;99.90;;;;;;5012625;28;20037;-75
2023/08/29 00:08:47;;;;;;;42.78;40.13;;;19.10;99.90;;;;;;5012654;28;20030;-75
2023/08/29 00:11:13;;;;;;;49.22;46.58;;;19.10;99.90;;;;;;5012306;28;20066;-75
2023/08/29 00:13:39;;;;;;;31.05;29.23;;;19.00;99.90;;;;;;5012673;28;20471;-75
2023/08/29 00:16:05;;;;;;;37.28;34.88;;;18.90;99.90;;;;;;5012067;28;20034;-75
2023/08/29 00:18:31;;;;;;;46.30;43.55;;;18.90;99.90;;;;;;5013081;28;20049;-75
2023/08/29 00:20:58;;;;;;;59.78;56.53;;;18.90;99.90;;;;;;5012312;28;20041;-75
2023/08/29 00:23:24;;;;;;;94.35;89.05;;;18.90;99.90;;;;;;5012654;28;20038;-76
2023/08/29 00:25:50;;;;;;;65.88;62.28;;;18.80;99.90;;;;;;5011887;28;20037;-75
2023/08/29 00:28:16;;;;;;;44.45;41.65;;;18.80;99.90;;;;;;5012558;28;20407;-75
2023/08/29 00:30:42;;;;;;;153.75;146.15;;;18.80;99.90;;;;;;5011839;28;20026;-75
2023/08/29 00:33:09;;;;;;;34.17;32.00;;;18.70;99.90;;;;;;5012437;28;20033;-75
2023/08/29 00:35:36;;;;;;;55.58;52.22;;;18.60;99.90;;;;;;5012471;28;20030;-75
2023/08/29 00:38:03;;;;;;;46.72;44.05;;;18.30;99.90;;;;;;5012430;28;20049;-75
2023/08/29 00:40:32;;;;;;;34.10;32.10;;;18.30;99.90;;;;;;5011862;28;20522;-76
2023/08/29 00:43:01;;;;;;;39.13;36.83;;;18.30;99.90;;;;;;5012419;28;20041;-76
2023/08/29 00:45:33;;;;;;;70.15;66.40;;;18.30;99.90;;;;;;5011771;28;20026;-75
2023/08/29 00:48:00;;;;;;;40.83;38.42;;;18.30;99.90;;;;;;5012431;28;20038;-75
2023/08/29 00:50:26;;;;;;;51.78;48.97;;;18.30;99.90;;;;;;5012016;28;20037;-74
2023/08/29 00:52:54;;;;;;;42.03;39.53;;;18.30;99.90;;;;;;5012734;28;20046;-75
2023/08/29 00:55:21;;;;;;;52.78;49.95;;;18.40;99.90;;;;;;5014453;28;20022;-75
2023/08/29 00:57:47;;;;;;;54.78;51.75;;;18.40;99.90;;;;;;5016225;28;20060;-76
2023/08/29 01:00:14;;;;;;;58.72;55.67;;;18.40;99.90;;;;;;5015516;28;20037;-76
2023/08/29 01:02:40;;;;;;;73.43;69.63;;;18.40;99.90;;;;;;5015932;28;20098;-76
2023/08/29 01:05:06;;;;;;;74.05;69.90;;;18.40;99.90;;;;;;5015979;28;20037;-76
2023/08/29 01:07:32;;;;;;;46.20;43.65;;;18.40;99.90;;;;;;5015952;28;20036;-75
2023/08/29 01:09:59;;;;;;;55.00;52.03;;;18.30;99.90;;;;;;5013970;28;20505;-76
2023/08/29 01:12:33;;;;;;;60.03;56.65;;;18.30;99.90;;;;;;5014461;28;20034;-76
2023/08/29 01:15:03;;;;;;;76.85;72.70;;;18.30;99.90;;;;;;5014803;28;20040;-75
2023/08/29 01:17:32;;;;;;;116.43;110.68;;;18.30;99.90;;;;;;5013752;28;20045;-75
2023/08/29 01:19:58;;;;;;;77.75;73.60;;;18.40;99.90;;;;;;5014314;28;20514;-75
2023/08/29 01:22:44;;;;;;;55.00;52.17;;;18.40;99.90;;;;;;5013956;28;20029;-75
2023/08/29 01:25:48;;;;;;;58.97;55.72;;;18.50;99.90;;;;;;5014542;28;20038;-75
2023/08/29 01:28:15;;;;;;;59.63;56.15;;;18.50;99.90;;;;;;5015835;28;20037;-76
2023/08/29 01:30:42;;;;;;;63.05;59.67;;;18.50;99.90;;;;;;5013388;28;20038;-75
2023/08/29 01:33:09;;;;;;;60.88;57.67;;;18.50;99.90;;;;;;5014451;28;20379;-75
2023/08/29 01:35:35;;;;;;;49.83;47.00;;;18.40;99.90;;;;;;5013776;28;20037;-75
2023/08/29 01:38:01;;;;;;;52.72;49.70;;;18.30;99.90;;;;;;5013836;28;20030;-76
2023/08/29 01:40:27;;;;;;;63.22;59.70;;;18.30;99.90;;;;;;5015367;28;20483;-75
2023/08/29 01:42:53;;;;;;;92.05;87.18;;;18.40;99.90;;;;;;5014384;28;20097;-76
2023/08/29 01:45:19;;;;;;;75.45;71.05;;;18.40;99.90;;;;;;5014821;28;20068;-75
2023/08/29 01:47:45;;;;;;;112.35;106.40;;;18.40;99.90;;;;;;5015333;28;20025;-75
2023/08/29 01:50:11;;;;;;;100.78;95.43;;;18.50;99.90;;;;;;5014982;28;20022;-76
2023/08/29 01:52:37;;;;;;;113.13;107.45;;;18.30;99.90;;;;;;5013765;28;20057;-75
2023/08/29 01:55:04;;;;;;;85.13;80.70;;;18.50;99.90;;;;;;5013963;28;20022;-75
2023/08/29 01:57:31;;;;;;;65.38;61.85;;;18.50;99.90;;;;;;5014062;28;20038;-75
2023/08/29 01:59:57;;;;;;;58.88;55.78;;;18.50;99.90;;;;;;5004303;28;20048;-75
2023/08/29 02:02:23;;;;;;;100.30;95.13;;;18.50;99.90;;;;;;5006338;28;20392;-75
2023/08/29 02:04:49;;;;;;;133.32;126.10;;;18.50;99.90;;;;;;5012657;28;20079;-75
2023/08/29 02:07:15;;;;;;;123.32;116.78;;;18.50;99.90;;;;;;5013120;28;20026;-76
2023/08/29 02:09:41;;;;;;;210.10;199.05;;;18.40;99.90;;;;;;5013690;28;20033;-76
2023/08/29 02:12:07;;;;;;;138.48;131.10;;;18.40;99.90;;;;;;5013361;28;20041;-76
2023/08/29 02:14:33;;;;;;;116.85;110.70;;;18.30;99.90;;;;;;5013369;28;20471;-75
2023/08/29 02:16:59;;;;;;;70.22;66.38;;;18.30;99.90;;;;;;5012879;28;20038;-75
2023/08/29 02:19:28;;;;;;;63.22;59.65;;;18.30;99.90;;;;;;5013492;28;20403;-75
2023/08/29 02:21:54;;;;;;;26.45;24.55;;;18.40;99.90;;;;;;5012878;28;20050;-76
2023/08/29 02:24:20;;;;;;;23.10;21.60;;;18.40;99.90;;;;;;5013369;28;20022;-75
2023/08/29 02:26:46;;;;;;;22.33;20.77;;;18.40;99.90;;;;;;5013149;28;20383;-76
2023/08/29 02:29:12;;;;;;;18.73;17.50;;;18.40;99.90;;;;;;5013161;28;20034;-75
2023/08/29 02:31:38;;;;;;;22.63;20.95;;;18.30;99.90;;;;;;5012549;28;20395;-75
2023/08/29 02:34:04;;;;;;;19.63;18.42;;;18.40;99.90;;;;;;5013379;28;20026;-75
2023/08/29 02:36:30;;;;;;;19.17;17.88;;;18.30;99.90;;;;;;5012781;28;20049;-75
2023/08/29 02:38:56;;;;;;;20.75;19.35;;;18.30;99.90;;;;;;5014304;28;20037;-75
2023/08/29 02:41:23;;;;;;;21.77;20.20;;;18.30;99.90;;;;;;5013986;28;20038;-75
2023/08/29 02:43:49;;;;;;;29.13;27.45;;;18.40;99.90;;;;;;5012988;28;20038;-76
2023/08/29 02:46:15;;;;;;;29.67;27.88;;;18.30;99.90;;;;;;5013634;28;20041;-76
2023/08/29 02:48:41;;;;;;;26.98;25.27;;;18.30;99.90;;;;;;5014207;28;20026;-76
2023/08/29 02:51:07;;;;;;;34.55;32.35;;;18.30;99.90;;;;;;5013388;28;20036;-75
2023/08/29 02:53:33;;;;;;;34.30;32.22;;;18.20;99.90;;;;;;5014069;28;20046;-75
2023/08/29 02:55:59;;;;;;;27.48;25.73;;;18.20;99.90;;;;;;5014282;28;20053;-75
2023/08/29 02:58:26;;;;;;;24.60;23.13;;;18.20;99.90;;;;;;5014020;28;20038;-75
2023/08/29 03:00:56;;;;;;;24.70;23.13;;;18.20;99.90;;;;;;5013142;28;20034;-75
2023/08/29 03:03:23;;;;;;;23.92;21.88;;;18.20;99.90;;;;;;5014183;28;20034;-75
2023/08/29 03:05:56;;;;;;;25.65;24.02;;;18.20;99.90;;;;;;5012042;28;20038;-75
2023/08/29 03:08:22;;;;;;;43.03;40.53;;;18.10;99.90;;;;;;5014108;28;20064;-74
2023/08/29 03:10:52;;;;;;;30.02;28.30;;;18.10;99.90;;;;;;5013829;28;20498;-76
2023/08/29 03:13:18;;;;;;;20.10;18.55;;;18.10;99.90;;;;;;5013762;28;20040;-75
2023/08/29 03:15:44;;;;;;;23.70;22.35;;;18.10;99.90;;;;;;5012556;28;20506;-75
2023/08/29 03:18:11;;;;;;;65.57;62.28;;;18.00;99.90;;;;;;5013575;28;20030;-75
2023/08/29 03:20:43;;;;;;;46.42;43.60;;;18.10;99.90;;;;;;5013151;28;20029;-76
2023/08/29 03:23:10;;;;;;;17.92;16.75;;;18.10;99.90;;;;;;5013526;28;20034;-75
2023/08/29 03:25:36;;;;;;;24.58;23.02;;;18.10;99.90;;;;;;5012070;28;20048;-75
2023/08/29 03:28:02;;;;;;;33.35;30.92;;;18.10;99.90;;;;;;5013531;28;20045;-75
2023/08/29 03:30:29;;;;;;;23.80;21.98;;;18.00;99.90;;;;;;5012789;28;20042;-75
2023/08/29 03:32:55;;;;;;;24.30;22.63;;;18.00;99.90;;;;;;4993513;28;20392;-75
2023/08/29 03:35:21;;;;;;;26.33;24.65;;;18.00;99.90;;;;;;4995230;28;20037;-75
2023/08/29 03:37:47;;;;;;;39.30;37.03;;;17.90;99.90;;;;;;5013276;28;20030;-76
2023/08/29 03:40:13;;;;;;;32.08;30.27;;;18.00;99.90;;;;;;5012998;28;20033;-75
2023/08/29 03:42:39;;;;;;;31.58;29.70;;;17.90;99.90;;;;;;5013051;28;20399;-75
2023/08/29 03:45:06;;;;;;;32.67;30.60;;;18.00;99.90;;;;;;5012652;28;20036;-74
2023/08/29 03:47:33;;;;;;;30.55;28.55;;;17.80;99.90;;;;;;5012372;28;20411;-75
2023/08/29 03:49:59;;;;;;;24.98;23.25;;;17.80;99.90;;;;;;5012800;28;20050;-75
2023/08/29 03:52:26;;;;;;;27.02;25.15;;;17.80;99.90;;;;;;5012638;28;20037;-75
2023/08/29 03:54:53;;;;;;;23.05;21.45;;;17.70;99.90;;;;;;5013361;28;20049;-75
2023/08/29 03:57:20;;;;;;;33.58;31.42;;;17.70;99.90;;;;;;5012770;28;20026;-75
2023/08/29 03:59:46;;;;;;;23.60;22.00;;;17.80;99.90;;;;;;5012773;28;20050;-75
2023/08/29 04:02:12;;;;;;;27.13;25.05;;;17.80;99.90;;;;;;5011994;28;20034;-75
2023/08/29 04:04:38;;;;;;;52.65;49.63;;;17.80;99.90;;;;;;5012834;28;20041;-75
2023/08/29 04:07:05;;;;;;;65.07;61.45;;;17.90;99.90;;;;;;5012745;28;20033;-75
2023/08/29 04:09:31;;;;;;;48.53;45.72;;;18.00;99.90;;;;;;5012774;28;20029;-75
2023/08/29 04:11:57;;;;;;;31.42;29.42;;;17.90;99.90;;;;;;5012652;28;20033;-75
2023/08/29 04:14:23;;;;;;;25.50;23.50;;;17.90;99.90;;;;;;5012747;28;20036;-75
2023/08/29 04:16:49;;;;;;;23.23;21.30;;;17.80;99.90;;;;;;5011987;28;20034;-75
2023/08/29 04:19:16;;;;;;;23.98;22.48;;;17.80;99.90;;;;;;5012789;28;20069;-74
2023/08/29 04:21:42;;;;;;;20.83;19.17;;;17.70;99.90;;;;;;5011528;28;20042;-74
2023/08/29 04:24:09;;;;;;;20.13;18.52;;;17.70;99.90;;;;;;5012444;28;20391;-75
2023/08/29 04:26:35;;;;;;;19.73;18.33;;;17.60;99.90;;;;;;5012417;28;20037;-75
2023/08/29 04:29:02;;;;;;;21.15;19.80;;;17.60;99.90;;;;;;5011872;28;20030;-73
2023/08/29 04:31:28;;;;;;;23.48;21.63;;;17.50;99.90;;;;;;5011565;28;20030;-74
2023/08/29 04:33:54;;;;;;;23.70;22.00;;;17.50;99.90;;;;;;5012461;28;20033;-75
2023/08/29 04:36:20;;;;;;;24.35;22.67;;;17.40;99.90;;;;;;5012238;28;20475;-75
2023/08/29 04:38:49;;;;;;;26.50;24.63;;;17.40;99.90;;;;;;5012609;28;20372;-75
2023/08/29 04:41:15;;;;;;;22.60;21.15;;;17.50;99.90;;;;;;5012361;28;20054;-75
2023/08/29 04:43:41;;;;;;;21.33;19.85;;;17.50;99.90;;;;;;5012831;28;20049;-75
2023/08/29 04:46:07;;;;;;;19.13;17.60;;;17.60;99.90;;;;;;5011429;28;20064;-75
2023/08/29 04:48:34;;;;;;;18.10;16.67;;;17.70;99.90;;;;;;5012647;28;20038;-75
2023/08/29 04:51:01;;;;;;;17.65;16.50;;;17.70;99.90;;;;;;5012114;28;20060;-75
2023/08/29 04:53:27;;;;;;;18.63;17.13;;;17.60;99.90;;;;;;5012313;28;20050;-75
2023/08/29 04:56:00;;;;;;;17.83;15.70;;;17.60;99.90;;;;;;5011259;28;20030;-75
2023/08/29 04:58:27;;;;;;;20.00;18.48;;;17.60;99.90;;;;;;5012389;28;20399;-75
2023/08/29 05:00:53;;;;;;;17.83;16.52;;;17.60;99.90;;;;;;5011454;28;20381;-75
2023/08/29 05:03:19;;;;;;;19.15;17.65;;;17.60;99.90;;;;;;5012265;28;20040;-75
2023/08/29 05:05:46;;;;;;;18.42;17.02;;;17.50;99.90;;;;;;5012508;28;20383;-74
2023/08/29 05:08:12;;;;;;;20.05;18.25;;;17.60;99.90;;;;;;5012225;28;20033;-75
2023/08/29 05:10:38;;;;;;;18.10;16.73;;;17.50;99.90;;;;;;5012391;28;20026;-75
2023/08/29 05:13:05;;;;;;;18.15;16.35;;;17.50;99.90;;;;;;5011000;28;20018;-75
2023/08/29 05:15:31;;;;;;;17.70;16.23;;;17.50;99.90;;;;;;5011503;28;20033;-75
2023/08/29 05:17:57;;;;;;;18.75;17.15;;;17.50;99.90;;;;;;5011825;28;20056;-75
2023/08/29 05:20:24;;;;;;;19.63;18.13;;;17.50;99.90;;;;;;5011992;28;20045;-75
2023/08/29 05:22:50;;;;;;;20.55;18.98;;;17.50;99.90;;;;;;5012124;28;20034;-75
2023/08/29 05:25:16;;;;;;;21.00;19.23;;;17.50;99.90;;;;;;5011859;28;20038;-75
2023/08/29 05:27:42;;;;;;;20.10;18.60;;;17.50;99.90;;;;;;5012126;28;20026;-75
2023/08/29 05:30:09;;;;;;;23.60;21.58;;;17.60;99.90;;;;;;5011294;28;20490;-83
2023/08/29 05:32:37;;;;;;;23.75;22.10;;;17.60;99.90;;;;;;5010778;28;20037;-83
2023/08/29 05:35:03;;;;;;;25.83;24.02;;;17.60;99.90;;;;;;5012105;28;20050;-82
2023/08/29 05:37:29;;;;;;;21.33;19.65;;;17.60;99.90;;;;;;5011910;28;20030;-82
2023/08/29 05:39:56;;;;;;;23.10;20.98;;;17.60;99.90;;;;;;4996977;28;20046;-79
2023/08/29 05:42:22;;;;;;;24.95;23.15;;;17.60;99.90;;;;;;5015533;28;20033;-81
2023/08/29 05:44:48;;;;;;;24.38;22.67;;;17.60;99.90;;;;;;5015201;28;20490;-83
2023/08/29 05:47:14;;;;;;;25.00;23.10;;;17.70;99.90;;;;;;5013863;28;20038;-78
2023/08/29 05:49:40;;;;;;;21.85;20.05;;;17.80;99.90;;;;;;5015581;28;20483;-84
2023/08/29 05:52:06;;;;;;;20.38;18.63;;;17.80;99.90;;;;;;5013621;28;20040;-83
2023/08/29 05:54:36;;;;;;;20.50;19.10;;;17.90;99.90;;;;;;5014270;28;20368;-80
2023/08/29 05:57:03;;;;;;;19.40;17.67;;;17.90;99.90;;;;;;5015017;28;20046;-76
2023/08/29 05:59:29;;;;;;;19.85;17.92;;;17.90;99.90;;;;;;5013668;28;20034;-82
2023/08/29 06:01:55;;;;;;;18.67;17.42;;;17.90;99.90;;;;;;5014536;28;20049;-79
2023/08/29 06:04:21;;;;;;;20.40;18.67;;;18.00;99.90;;;;;;5015313;28;20034;-82
2023/08/29 06:06:49;;;;;;;21.55;19.65;;;18.10;99.90;;;;;;5013981;28;20030;-83
2023/08/29 06:09:15;;;;;;;21.45;19.73;;;18.10;99.90;;;;;;5015223;28;20042;-81
2023/08/29 06:11:41;;;;;;;19.05;17.48;;;18.10;99.90;;;;;;5013827;28;20033;-83
2023/08/29 06:14:08;;;;;;;21.85;20.15;;;18.10;99.90;;;;;;5014675;28;20037;-79
2023/08/29 06:16:34;;;;;;;20.20;18.50;;;18.10;99.90;;;;;;5014217;28;20038;-82
2023/08/29 06:19:00;;;;;;;20.58;19.20;;;18.10;99.90;;;;;;5014944;28;20034;-82
2023/08/29 06:21:26;;;;;;;22.60;20.52;;;18.10;99.90;;;;;;5014474;28;20042;-82
2023/08/29 06:23:52;;;;;;;21.83;19.85;;;18.10;99.90;;;;;;5015040;28;20038;-83
2023/08/29 06:26:18;;;;;;;21.63;19.83;;;18.10;99.90;;;;;;5013447;28;20041;-84
2023/08/29 06:28:44;;;;;;;18.73;17.17;;;18.10;99.90;;;;;;5014605;28;20022;-81
2023/08/29 06:31:10;;;;;;;20.17;18.65;;;18.10;99.90;;;;;;5013973;28;20042;-82
2023/08/29 06:33:37;;;;;;;21.73;19.85;;;18.20;99.90;;;;;;5013804;28;20049;-82
2023/08/29 06:36:03;;;;;;;22.95;20.85;;;18.20;99.90;;;;;;5012909;28;20061;-82
2023/08/29 06:38:30;;;;;;;19.45;18.02;;;18.20;99.90;;;;;;5014696;28;20033;-83
2023/08/29 06:40:56;;;;;;;19.73;18.08;;;18.10;99.90;;;;;;5014167;28;20034;-79
2023/08/29 06:43:23;;;;;;;20.90;18.90;;;18.20;99.90;;;;;;5014339;28;20060;-82
2023/08/29 06:45:49;;;;;;;21.23;19.38;;;18.20;99.90;;;;;;4995874;28;20045;-82
2023/08/29 06:48:15;;;;;;;21.40;19.33;;;18.20;99.90;;;;;;5014478;28;20030;-82
2023/08/29 06:50:41;;;;;;;21.45;19.45;;;18.10;99.90;;;;;;5013487;28;20464;-83
2023/08/29 06:53:07;;;;;;;21.50;19.55;;;18.10;99.90;;;;;;5013117;28;20038;-81
2023/08/29 06:55:34;;;;;;;21.92;19.98;;;18.20;99.90;;;;;;5013912;28;20040;-82
2023/08/29 06:58:02;;;;;;;20.48;18.73;;;18.10;99.90;;;;;;5014342;28;20471;-82
2023/08/29 07:00:28;;;;;;;19.45;17.52;;;18.20;99.90;;;;;;5013487;28;20502;-83
2023/08/29 07:02:54;;;;;;;17.23;15.80;;;18.20;99.90;;;;;;5014171;28;20038;-83
2023/08/29 07:05:20;;;;;;;18.52;16.67;;;18.20;99.90;;;;;;5013743;28;20471;-77
2023/08/29 07:07:46;;;;;;;19.27;17.60;;;18.30;99.90;;;;;;5014063;28;20041;-83
2023/08/29 07:10:13;;;;;;;22.50;20.38;;;18.30;99.90;;;;;;5012276;28;20025;-78
2023/08/29 07:12:39;;;;;;;22.33;20.23;;;18.30;99.90;;;;;;4994345;28;20042;-84
2023/08/29 07:15:06;;;;;;;23.25;21.25;;;18.30;99.90;;;;;;4993989;28;20416;-84
2023/08/29 07:17:32;;;;;;;22.10;20.00;;;18.40;99.90;;;;;;5013181;28;20034;-82
2023/08/29 07:19:58;;;;;;;25.65;23.65;;;18.30;99.90;;;;;;5014180;28;20050;-82
2023/08/29 07:22:24;;;;;;;51.50;48.13;;;18.30;99.90;;;;;;5013627;28;20364;-82
2023/08/29 07:24:53;;;;;;;31.13;28.75;;;18.50;99.90;;;;;;5013486;28;20037;-80
2023/08/29 07:27:19;;;;;;;42.38;39.28;;;18.30;99.90;;;;;;5013612;28;20038;-82
2023/08/29 07:29:45;;;;;;;49.97;46.45;;;18.40;99.90;;;;;;5013623;28;20026;-83
2023/08/29 07:32:11;;;;;;;41.25;38.25;;;18.40;99.90;;;;;;5012738;28;20033;-83
2023/08/29 07:34:40;;;;;;;39.17;36.47;;;18.20;99.90;;;;;;5012498;28;20042;-78
2023/08/29 07:37:06;;;;;;;25.02;23.20;;;18.20;99.90;;;;;;5013142;28;20372;-84
2023/08/29 07:39:32;;;;;;;28.15;25.95;;;18.10;99.90;;;;;;5011992;28;20038;-81
2023/08/29 07:41:59;;;;;;;25.73;23.50;;;18.10;99.90;;;;;;5013005;28;20045;-83
2023/08/29 07:44:25;;;;;;;22.17;19.92;;;18.20;99.90;;;;;;5013395;28;20022;-83
2023/08/29 07:46:51;;;;;;;19.40;17.88;;;18.30;99.90;;;;;;5012754;28;20048;-84
2023/08/29 07:49:20;;;;;;;19.25;17.65;;;18.30;99.90;;;;;;5013350;28;20029;-83
2023/08/29 07:51:47;;;;;;;16.50;15.23;;;18.30;99.90;;;;;;5013099;28;20030;-82
2023/08/29 07:54:13;;;;;;;17.10;15.45;;;18.40;99.90;;;;;;5011584;28;20410;-82
2023/08/29 07:56:39;;;;;;;22.08;20.15;;;18.40;99.90;;;;;;5012929;28;20098;-82
2023/08/29 07:59:05;;;;;;;63.17;59.50;;;18.50;99.90;;;;;;5013105;28;20407;-84
2023/08/29 08:01:31;;;;;;;51.92;48.72;;;18.50;99.90;;;;;;5012525;28;20038;-82
2023/08/29 08:03:57;;;;;;;54.25;50.90;;;18.60;99.90;;;;;;5012408;28;20038;-83
2023/08/29 08:06:23;;;;;;;44.00;41.13;;;18.70;99.90;;;;;;5012828;28;20040;-83
2023/08/29 08:08:50;;;;;;;51.88;48.25;;;18.60;99.90;;;;;;5011323;28;20041;-79
2023/08/29 08:11:16;;;;;;;43.45;40.53;;;18.50;99.90;;;;;;5012841;28;20391;-82
2023/08/29 08:13:42;;;;;;;39.33;36.72;;;18.60;99.90;;;;;;5012838;28;20037;-84
2023/08/29 08:16:08;;;;;;;28.85;26.45;;;18.60;99.90;;;;;;5010991;28;20403;-80
2023/08/29 08:18:34;;;;;;;21.38;19.80;;;18.80;99.90;;;;;;5012989;28;20022;-82
2023/08/29 08:21:00;;;;;;;22.02;20.38;;;18.80;99.90;;;;;;5012578;28;20054;-83
2023/08/29 08:23:26;;;;;;;21.70;19.90;;;18.90;99.90;;;;;;5012596;28;20030;-81
2023/08/29 08:25:53;;;;;;;22.90;21.13;;;19.00;99.90;;;;;;5013002;28;20471;-83
2023/08/29 08:28:19;;;;;;;23.45;21.67;;;19.10;99.90;;;;;;5013252;28;20022;-82
2023/08/29 08:30:46;;;;;;;24.73;22.77;;;19.00;99.90;;;;;;5012076;28;20041;-82
2023/08/29 08:33:12;;;;;;;25.05;23.05;;;19.00;99.90;;;;;;4995253;28;20057;-83
2023/08/29 08:35:38;;;;;;;24.52;22.77;;;19.10;99.90;;;;;;5012591;28;20029;-81
2023/08/29 08:38:07;;;;;;;25.95;23.95;;;19.00;99.90;;;;;;5012560;28;20041;-84
2023/08/29 08:40:39;;;;;;;26.13;24.02;;;19.00;99.90;;;;;;5012429;28;20030;-78
2023/08/29 08:43:05;;;;;;;25.42;23.25;;;19.10;99.90;;;;;;5011473;28;20041;-84
2023/08/29 08:45:32;;;;;;;26.35;24.00;;;19.00;99.90;;;;;;5012551;28;20026;-83
2023/08/29 08:47:58;;;;;;;26.98;24.80;;;19.10;99.90;;;;;;5011445;28;20479;-83
2023/08/29 08:50:25;;;;;;;23.42;21.63;;;19.10;99.90;;;;;;4994628;28;20030;-82
2023/08/29 08:52:52;;;;;;;28.05;25.90;;;19.20;99.90;;;;;;5011049;28;20056;-83
2023/08/29 08:55:18;;;;;;;27.13;25.30;;;19.10;99.90;;;;;;5012413;28;20030;-82
2023/08/29 08:57:45;;;;;;;31.52;29.42;;;19.20;99.90;;;;;;5012812;28;20026;-77
2023/08/29 09:00:11;;;;;;;28.60;26.60;;;19.20;99.90;;;;;;5010613;28;20029;-84
2023/08/29 09:02:38;;;;;;;30.65;28.55;;;19.20;99.90;;;;;;5012425;28;20018;-78
2023/08/29 09:05:04;;;;;;;42.00;39.30;;;19.30;99.90;;;;;;5011251;28;20360;-83
2023/08/29 09:07:30;;;;;;;39.30;36.55;;;19.40;99.90;;;;;;5011927;28;20395;-83
2023/08/29 09:10:07;;;;;;;44.92;41.90;;;19.20;99.90;;;;;;5012452;28;20037;-79
2023/08/29 09:12:34;;;;;;;42.58;39.67;;;19.00;99.90;;;;;;5012649;28;20368;-79
2023/08/29 09:15:04;;;;;;;45.92;42.63;;;19.10;99.90;;;;;;5014596;28;20041;-84
2023/08/29 09:17:31;;;;;;;51.17;47.47;;;19.10;99.90;;;;;;5014973;28;20045;-83
2023/08/29 09:20:00;;;;;;;34.15;31.52;;;19.00;99.90;;;;;;5016062;28;20492;-81
2023/08/29 09:22:27;;;;;;;36.92;34.28;;;19.00;99.90;;;;;;5015250;28;20053;-84
2023/08/29 09:24:53;;;;;;;54.58;51.10;;;19.20;99.90;;;;;;5014760;28;20021;-83
2023/08/29 09:27:19;;;;;;;51.30;48.30;;;19.40;99.90;;;;;;5014414;28;20048;-85
2023/08/29 09:29:45;;;;;;;42.95;40.15;;;19.50;99.90;;;;;;5015790;28;20026;-83
2023/08/29 09:32:14;;;;;;;26.48;24.17;;;19.60;99.90;;;;;;5014042;28;20045;-83
2023/08/29 09:34:41;;;;;;;25.58;23.20;;;19.80;99.90;;;;;;5014721;28;20022;-83
2023/08/29 09:37:07;;;;;;;26.55;24.60;;;19.90;99.90;;;;;;5013713;28;20053;-83
2023/08/29 09:39:33;;;;;;;30.75;28.40;;;20.00;99.90;;;;;;5015997;28;20044;-78
2023/08/29 09:42:03;;;;;;;36.63;33.75;;;20.00;99.90;;;;;;5013940;28;20046;-83
2023/08/29 09:44:29;;;;;;;38.00;35.75;;;19.80;99.90;;;;;;5014260;28;20033;-83
2023/08/29 09:46:56;;;;;;;23.40;20.45;;;19.90;99.90;;;;;;5015078;28;20045;-83
2023/08/29 09:49:22;;;;;;;24.23;22.15;;;20.10;99.90;;;;;;5015538;28;20518;-81
2023/08/29 09:51:48;;;;;;;23.77;21.73;;;20.20;99.90;;;;;;5014783;28;20422;-82
2023/08/29 09:54:15;;;;;;;26.45;24.55;;;20.40;99.90;;;;;;5015217;28;20483;-80
2023/08/29 09:56:42;;;;;;;26.60;24.65;;;20.40;99.90;;;;;;5013932;28;20042;-85
2023/08/29 09:59:11;;;;;;;28.73;26.92;;;20.30;99.90;;;;;;5015715;28;20038;-82
2023/08/29 10:01:40;;;;;;;28.75;26.70;;;20.30;99.90;;;;;;5013439;28;20046;-78
2023/08/29 10:04:06;;;;;;;27.65;25.80;;;20.40;99.90;;;;;;5014003;28;20029;-83
2023/08/29 10:06:32;;;;;;;30.83;28.63;;;20.40;99.90;;;;;;5013643;28;20042;-84
2023/08/29 10:09:00;;;;;;;34.80;32.20;;;20.40;99.90;;;;;;5013901;28;20033;-85
2023/08/29 10:11:26;;;;;;;35.70;33.17;;;20.50;99.90;;;;;;5013750;28;20036;-85
2023/08/29 10:13:53;;;;;;;30.85;28.73;;;20.50;99.90;;;;;;5013875;28;20025;-84
2023/08/29 10:16:19;;;;;;;37.33;35.03;;;20.50;99.90;;;;;;5013342;28;20030;-82
2023/08/29 10:18:45;;;;;;;37.08;34.72;;;20.50;99.90;;;;;;5014499;28;20026;-81
2023/08/29 10:21:11;;;;;;;27.35;25.25;;;20.50;99.90;;;;;;5013517;28;20052;-83
2023/08/29 10:23:37;;;;;;;26.02;24.35;;;20.60;99.90;;;;;;5013893;28;20632;-78
2023/08/29 10:26:03;;;;;;;25.77;24.08;;;20.60;99.90;;;;;;4996203;28;20040;-82
2023/08/29 10:28:29;;;;;;;25.13;23.00;;;20.70;99.90;;;;;;5013371;28;20034;-84
2023/08/29 10:31:02;;;;;;;24.77;23.02;;;20.70;99.90;;;;;;5012617;28;20494;-81
2023/08/29 10:33:28;;;;;;;24.83;22.98;;;20.70;99.90;;;;;;5014309;28;20389;-81
2023/08/29 10:35:54;;;;;;;30.27;28.10;;;20.80;99.90;;;;;;5014299;28;20026;-84
2023/08/29 10:38:20;;;;;;;25.17;23.60;;;20.80;99.90;;;;;;5014837;28;20048;-83
2023/08/29 10:40:46;;;;;;;27.02;25.05;;;20.70;99.90;;;;;;5013176;28;20037;-83
2023/08/29 10:43:19;;;;;;;25.25;23.45;;;20.70;99.90;;;;;;5013417;28;20037;-83
2023/08/29 10:45:49;;;;;;;25.25;23.45;;;20.60;99.90;;;;;;5013850;28;20030;-81
2023/08/29 10:48:19;;;;;;;27.35;25.52;;;20.40;99.90;;;;;;5014210;28;20026;-80
2023/08/29 10:50:47;;;;;;;28.65;26.35;;;20.50;99.90;;;;;;5013949;28;20025;-81
2023/08/29 10:53:18;;;;;;;29.35;27.23;;;20.60;99.90;;;;;;5014076;28;20054;-84
2023/08/29 10:55:58;;;;;;;29.23;27.27;;;20.70;99.90;;;;;;5014218;28;20037;-78
2023/08/29 10:58:33;;;;;;;33.03;30.73;;;20.70;99.90;;;;;;5013244;28;20022;-83
2023/08/29 11:00:59;;;;;;;21.40;19.95;;;20.80;99.90;;;;;;5011853;28;20041;-84
2023/08/29 11:03:45;;;;;;;23.95;22.15;;;20.80;99.90;;;;;;5013832;28;20037;-85
2023/08/29 11:06:11;;;;;;;22.70;21.25;;;20.30;99.90;;;;;;5012834;28;20041;-85
2023/08/29 11:08:37;;;;;;;26.02;24.40;;;20.40;99.90;;;;;;5014039;28;20030;-83
2023/08/29 11:11:20;;;;;;;27.40;25.58;;;20.50;99.90;;;;;;5012553;28;20026;-80
2023/08/29 11:14:08;;;;;;;23.02;21.52;;;20.70;99.90;;;;;;5014350;28;20033;-86
2023/08/29 11:16:35;;;;;;;23.00;21.42;;;20.80;99.90;;;;;;5013144;28;20045;-82
2023/08/29 11:19:11;;;;;;;22.92;21.58;;;20.80;99.90;;;;;;5013700;28;20026;-84
2023/08/29 11:21:37;;;;;;;36.17;34.25;;;21.00;99.90;;;;;;5012437;28;20056;-83
2023/08/29 11:24:05;;;;;;;32.42;30.35;;;21.20;99.90;;;;;;5013684;28;20041;-82
2023/08/29 11:26:37;;;;;;;30.33;28.50;;;20.90;99.90;;;;;;5011782;28;20046;-83
2023/08/29 11:29:05;;;;;;;25.10;23.60;;;21.00;99.90;;;;;;5012621;28;20030;-81
2023/08/29 11:31:32;;;;;;;24.42;22.73;;;21.20;99.90;;;;;;5011411;28;20041;-84
2023/08/29 11:33:59;;;;;;;22.73;21.23;;;21.30;99.90;;;;;;5013985;28;20044;-84
2023/08/29 11:36:31;;;;;;;34.17;32.13;;;21.40;99.90;;;;;;5013536;28;20041;-85
2023/08/29 11:38:57;;;;;;;30.42;28.52;;;21.50;99.90;;;;;;5012094;28;20395;-81
2023/08/29 11:41:27;;;;;;;42.92;40.65;;;21.60;99.90;;;;;;5013081;28;20042;-82
2023/08/29 11:43:54;;;;;;;34.50;32.47;;;21.70;99.90;;;;;;5013517;28;20379;-85
2023/08/29 11:46:21;;;;;;;70.63;66.78;;;21.90;99.90;;;;;;5011201;28;20399;-83
2023/08/29 11:48:47;;;;;;;58.35;55.33;;;21.90;99.90;;;;;;5013580;28;20042;-84
2023/08/29 11:51:13;;;;;;;64.18;60.70;;;22.00;99.90;;;;;;5011871;28;20034;-84
2023/08/29 11:53:40;;;;;;;62.42;59.30;;;22.10;99.90;;;;;;5011957;28;20053;-83
2023/08/29 11:56:09;;;;;;;80.45;76.28;;;22.10;99.90;;;;;;5013042;28;20026;-85
2023/08/29 11:58:36;;;;;;;70.22;66.70;;;22.00;99.90;;;;;;5013309;28;20494;-84
2023/08/29 12:01:07;;;;;;;116.30;110.47;;;22.00;99.90;;;;;;5011293;28;20047;-76
2023/08/29 12:03:39;;;;;;;71.95;68.10;;;22.10;99.90;;;;;;4997184;28;20577;-76
2023/08/29 12:06:12;;;;;;;134.10;127.53;;;22.20;99.90;;;;;;5000683;28;20056;-76
2023/08/29 12:08:42;;;;;;;150.25;142.88;;;22.10;99.90;;;;;;5012941;28;20025;-76
2023/08/29 12:11:09;;;;;;;158.90;151.05;;;22.00;99.90;;;;;;5012598;28;20483;-76
2023/08/29 12:13:36;;;;;;;96.20;91.32;;;22.10;99.90;;;;;;5011352;28;20502;-76
2023/08/29 12:16:03;;;;;;;182.85;174.13;;;22.00;99.90;;;;;;5011785;28;20049;-76
2023/08/29 12:18:29;;;;;;;179.25;170.70;;;21.90;99.90;;;;;;5012669;28;20022;-76
2023/08/29 12:21:11;;;;;;;151.85;144.05;;;21.90;99.90;;;;;;5012190;28;20056;-76
2023/08/29 12:23:37;;;;;;;85.72;81.50;;;22.00;99.90;;;;;;5012449;28;20045;-76
2023/08/29 12:26:03;;;;;;;98.95;94.05;;;21.90;99.90;;;;;;5011456;28;20045;-76